createdAt,value
2022-09-04T00:01:30.614Z,64.80
2022-09-04T00:04:11.962Z,64.90
2022-09-04T00:06:43.534Z,65.20
2022-09-04T00:09:33.478Z,65.50
2022-09-04T00:12:05.411Z,65.50
2022-09-04T00:14:32.077Z,65.60
2022-09-04T00:17:04.739Z,65.80
2022-09-04T00:19:34.463Z,66.00
2022-09-04T00:22:02.115Z,66.10
2022-09-04T00:24:32.243Z,66.40
2022-09-04T00:27:13.230Z,66.50
2022-09-04T00:30:01.713Z,66.70
2022-09-04T00:32:38.526Z,66.70
2022-09-04T00:35:11.530Z,66.80
2022-09-04T00:37:39.854Z,67.10
2022-09-04T00:40:25.780Z,68.00
2022-09-04T00:43:06.574Z,67.40
2022-09-04T00:45:43.235Z,67.60
2022-09-04T00:48:12.754Z,67.70
2022-09-04T00:50:51.711Z,67.90
2022-09-04T00:53:30.007Z,67.90
2022-09-04T00:56:05.398Z,68.00
2022-09-04T00:58:38.334Z,68.20
2022-09-04T01:01:05.481Z,68.50
2022-09-04T01:03:39.194Z,68.80
2022-09-04T01:06:15.393Z,69.10
2022-09-04T01:09:01.307Z,69.10
2022-09-04T01:11:33.935Z,69.30
2022-09-04T01:14:23.628Z,69.50
2022-09-04T01:16:55.200Z,69.70
2022-09-04T01:19:30.131Z,69.90
2022-09-04T01:21:56.756Z,70.00
2022-09-04T01:24:46.091Z,70.10
2022-09-04T01:27:22.528Z,70.40
2022-09-04T01:29:56.396Z,70.50
2022-09-04T01:32:23.395Z,70.70
2022-09-04T01:35:07.598Z,70.80
2022-09-04T01:37:57.883Z,71.00
2022-09-04T01:40:36.411Z,71.40
2022-09-04T01:43:08.339Z,71.60
2022-09-04T01:45:41.202Z,71.90
2022-09-04T01:48:10.400Z,72.10
2022-09-04T01:50:38.169Z,72.40
2022-09-04T01:53:17.926Z,72.50
2022-09-04T01:55:44.815Z,72.80
2022-09-04T01:58:17.310Z,73.10
2022-09-04T02:00:47.430Z,73.30
2022-09-04T02:03:24.976Z,73.40
2022-09-04T02:06:05.132Z,73.60
2022-09-04T02:08:31.749Z,73.80
2022-09-04T02:11:09.350Z,74.00
2022-09-04T02:14:04.229Z,74.20
2022-09-04T02:16:37.635Z,75.10
2022-09-04T02:19:04.268Z,74.50
2022-09-04T02:21:32.899Z,74.70
2022-09-04T02:24:08.472Z,74.80
2022-09-04T02:26:45.744Z,75.00
2022-09-04T02:29:22.484Z,75.10
2022-09-04T02:31:54.720Z,75.30
2022-09-04T02:34:38.194Z,75.50
2022-09-04T02:37:14.092Z,75.50
2022-09-04T02:39:43.806Z,75.70
2022-09-04T02:42:14.508Z,75.90
2022-09-04T02:44:52.940Z,76.20
2022-09-04T02:47:29.103Z,76.50
2022-09-04T02:50:01.748Z,76.70
2022-09-04T02:52:33.401Z,76.80
2022-09-04T02:55:12.595Z,77.00
2022-09-04T02:57:55.033Z,77.10
2022-09-04T03:00:27.330Z,77.20
2022-09-04T03:03:15.200Z,77.30
2022-09-04T03:05:49.980Z,77.40
2022-09-04T03:08:30.316Z,77.40
2022-09-04T03:11:06.144Z,77.40
2022-09-04T03:13:40.149Z,77.40
2022-09-04T03:16:15.615Z,77.50
2022-09-04T03:18:51.418Z,77.60
2022-09-04T03:21:25.011Z,77.70
2022-09-04T03:23:57.835Z,78.00
2022-09-04T03:26:29.744Z,78.10
2022-09-04T03:29:02.369Z,78.20
2022-09-04T03:31:31.492Z,78.30
2022-09-04T03:34:05.129Z,78.40
2022-09-04T03:36:40.124Z,78.60
2022-09-04T03:39:16.628Z,78.80
2022-09-04T03:41:50.617Z,79.00
2022-09-04T03:44:22.914Z,79.30
2022-09-04T03:46:49.643Z,79.50
2022-09-04T03:49:22.391Z,79.60
2022-09-04T03:52:00.528Z,79.90
2022-09-04T03:54:37.941Z,80.20
2022-09-04T03:57:23.538Z,80.40
2022-09-04T04:00:11.515Z,80.50
2022-09-04T04:02:41.097Z,80.70
2022-09-04T04:05:17.303Z,81.10
2022-09-04T04:07:50.262Z,82.10
2022-09-04T04:10:37.173Z,81.30
2022-09-04T04:13:16.161Z,81.50
2022-09-04T04:15:56.976Z,81.80
2022-09-04T04:18:23.800Z,82.00
2022-09-04T04:21:03.966Z,82.10
2022-09-04T04:23:37.497Z,82.20
2022-09-04T04:26:15.445Z,82.20
2022-09-04T04:29:00.165Z,82.10
2022-09-04T04:31:35.210Z,82.40
2022-09-04T04:34:10.579Z,82.50
2022-09-04T04:36:40.244Z,82.60
2022-09-04T04:39:28.157Z,82.70
2022-09-04T04:42:22.953Z,82.80
2022-09-04T04:45:17.982Z,83.10
2022-09-04T04:48:03.597Z,83.10
2022-09-04T04:50:50.031Z,83.20
2022-09-04T04:53:26.599Z,83.40
2022-09-04T04:56:14.149Z,83.60
2022-09-04T04:58:53.851Z,83.90
2022-09-04T05:01:43.281Z,84.00
2022-09-04T05:04:17.526Z,84.30
2022-09-04T05:06:52.187Z,84.50
2022-09-04T05:09:18.931Z,84.80
2022-09-04T05:12:03.596Z,85.00
2022-09-04T05:14:53.571Z,85.10
2022-09-04T05:17:39.010Z,85.40
2022-09-04T05:20:20.337Z,85.50
2022-09-04T05:22:46.980Z,85.70
2022-09-04T05:25:18.330Z,86.00
2022-09-04T05:27:56.888Z,86.10
2022-09-04T05:30:31.054Z,86.20
2022-09-04T05:33:03.483Z,86.50
2022-09-04T05:35:59.654Z,86.60
2022-09-04T05:38:30.678Z,86.90
2022-09-04T05:41:07.843Z,87.10
2022-09-04T05:44:00.306Z,87.40
2022-09-04T05:46:29.690Z,87.60
2022-09-04T05:49:05.318Z,88.50
2022-09-04T05:51:42.368Z,88.00
2022-09-04T05:54:28.369Z,88.10
2022-09-04T05:56:58.035Z,88.10
2022-09-04T05:59:44.115Z,88.30
2022-09-04T06:02:11.309Z,88.40
2022-09-04T06:04:46.658Z,88.60
2022-09-04T06:07:16.300Z,88.80
2022-09-04T06:09:45.940Z,90.10
2022-09-04T06:12:28.701Z,89.30
2022-09-04T06:14:58.766Z,89.50
2022-09-04T06:17:37.658Z,89.60
2022-09-04T06:20:16.618Z,89.60
2022-09-04T06:22:55.042Z,89.80
2022-09-04T06:25:30.504Z,90.10
2022-09-04T06:28:06.466Z,90.20
2022-09-04T06:30:47.976Z,90.20
2022-09-04T06:33:20.899Z,90.30
2022-09-04T06:35:47.474Z,92.20
2022-09-04T06:38:14.485Z,91.00
2022-09-04T06:40:48.627Z,91.10
2022-09-04T06:43:31.921Z,91.50
2022-09-04T06:46:02.936Z,91.40
2022-09-04T06:48:47.304Z,91.50
2022-09-04T06:51:29.502Z,91.70
2022-09-04T06:54:14.552Z,91.80
2022-09-04T06:56:55.817Z,92.50
2022-09-04T06:59:26.695Z,92.10
2022-09-04T07:02:01.051Z,92.90
2022-09-04T07:04:30.567Z,93.20
2022-09-04T07:07:12.759Z,93.20
2022-09-04T07:09:45.504Z,93.00
2022-09-04T07:12:33.748Z,93.60
2022-09-04T07:15:19.302Z,94.00
2022-09-04T07:17:45.879Z,94.10
2022-09-04T07:20:17.143Z,94.60
2022-09-04T07:23:10.079Z,94.20
2022-09-04T07:25:36.719Z,94.00
2022-09-04T07:28:03.985Z,94.90
2022-09-04T07:30:34.661Z,94.00
2022-09-04T07:33:05.428Z,93.80
2022-09-04T07:35:44.416Z,93.70
2022-09-04T07:38:11.447Z,93.70
2022-09-04T07:40:51.098Z,93.50
2022-09-04T07:43:39.809Z,94.50
2022-09-04T07:46:13.787Z,93.90
2022-09-04T07:48:43.946Z,93.80
2022-09-04T07:51:30.845Z,93.50
2022-09-04T07:54:33.216Z,93.30
2022-09-04T07:57:03.579Z,94.30
2022-09-04T07:59:32.871Z,93.80
2022-09-04T08:02:14.679Z,93.60
2022-09-04T08:04:55.942Z,93.50
2022-09-04T08:07:28.286Z,93.30
2022-09-04T08:10:03.846Z,93.20
2022-09-04T08:12:39.801Z,93.00
2022-09-04T08:15:25.156Z,92.80
2022-09-04T08:18:01.509Z,92.70
2022-09-04T08:20:38.707Z,92.70
2022-09-04T08:23:05.669Z,92.40
2022-09-04T08:25:41.124Z,92.40
2022-09-04T08:28:26.496Z,92.20
2022-09-04T08:31:07.704Z,92.10
2022-09-04T08:33:53.994Z,92.10
2022-09-04T08:36:41.397Z,91.90
2022-09-04T08:39:16.948Z,92.00
2022-09-04T08:41:47.985Z,91.80
2022-09-04T08:44:14.570Z,91.70
2022-09-04T08:46:49.353Z,91.80
2022-09-04T08:49:16.977Z,91.60
2022-09-04T08:51:43.563Z,91.60
2022-09-04T08:54:15.937Z,91.70
2022-09-04T08:56:42.594Z,91.40
2022-09-04T08:59:24.487Z,91.40
2022-09-04T09:02:10.218Z,91.30
2022-09-04T09:04:55.077Z,91.20
2022-09-04T09:07:40.555Z,91.10
2022-09-04T09:10:15.057Z,91.10
2022-09-04T09:13:00.506Z,91.00
2022-09-04T09:15:46.058Z,90.80
2022-09-04T09:18:25.034Z,90.70
2022-09-04T09:21:12.466Z,90.40
2022-09-04T09:23:39.233Z,90.20
2022-09-04T09:26:15.009Z,90.10
2022-09-04T09:28:47.790Z,90.30
2022-09-04T09:31:34.374Z,90.10
2022-09-04T09:34:11.609Z,89.70
2022-09-04T09:37:10.800Z,89.60
2022-09-04T09:39:56.785Z,89.60
2022-09-04T09:42:49.332Z,89.40
2022-09-04T09:45:31.648Z,89.20
2022-09-04T09:48:17.054Z,88.00
2022-09-04T09:51:01.980Z,88.10
2022-09-04T09:53:35.256Z,88.40
2022-09-04T09:56:20.499Z,86.10
2022-09-04T09:59:06.079Z,85.60
2022-09-04T10:01:49.194Z,85.60
2022-09-04T10:04:21.491Z,84.30
2022-09-04T10:07:03.201Z,83.80
2022-09-04T10:09:32.744Z,83.90
2022-09-04T10:12:25.640Z,82.30
2022-09-04T10:15:11.194Z,81.90
2022-09-04T10:18:00.647Z,82.00
2022-09-04T10:20:47.933Z,81.80
2022-09-04T10:23:35.823Z,81.80
2022-09-04T10:26:31.888Z,81.40
2022-09-04T10:29:11.873Z,81.10
2022-09-04T10:31:49.083Z,81.10
2022-09-04T10:34:39.714Z,81.50
2022-09-04T10:37:06.330Z,81.30
2022-09-04T10:40:07.039Z,80.40
2022-09-04T10:42:52.545Z,80.00
2022-09-04T10:45:25.242Z,80.20
2022-09-04T10:48:04.103Z,80.00
2022-09-04T10:50:30.878Z,78.00
2022-09-04T10:53:06.734Z,78.10
2022-09-04T10:55:50.666Z,78.60
2022-09-04T10:58:17.279Z,78.50
2022-09-04T11:00:50.022Z,78.80
2022-09-04T11:03:16.687Z,78.20
2022-09-04T11:05:44.397Z,78.60
2022-09-04T11:08:36.222Z,78.70
2022-09-04T11:11:09.568Z,77.00
2022-09-04T11:13:42.313Z,77.30
2022-09-04T11:16:09.899Z,78.10
2022-09-04T11:18:46.185Z,76.60
2022-09-04T11:21:32.370Z,76.80
2022-09-04T11:24:17.580Z,77.20
2022-09-04T11:26:54.779Z,77.30
2022-09-04T11:29:34.916Z,75.10
2022-09-04T11:32:01.662Z,74.70
2022-09-04T11:34:34.474Z,72.60
2022-09-04T11:37:31.812Z,73.60
2022-09-04T11:40:17.279Z,73.70
2022-09-04T11:43:02.763Z,72.20
2022-09-04T11:45:41.462Z,72.50
2022-09-04T11:48:11.953Z,71.80
2022-09-04T11:50:44.431Z,72.50
2022-09-04T11:53:33.531Z,72.60
2022-09-04T11:56:22.044Z,72.10
2022-09-04T11:58:59.348Z,71.70
2022-09-04T12:01:32.056Z,71.50
2022-09-04T12:04:01.797Z,70.60
2022-09-04T12:06:37.677Z,70.70
2022-09-04T12:09:07.198Z,71.00
2022-09-04T12:12:00.962Z,71.50
2022-09-04T12:14:28.979Z,69.50
2022-09-04T12:16:55.572Z,69.50
2022-09-04T12:19:26.897Z,70.00
2022-09-04T12:22:14.418Z,67.20
2022-09-04T12:24:56.344Z,66.60
2022-09-04T12:27:44.207Z,67.00
2022-09-04T12:30:37.344Z,67.60
2022-09-04T12:33:33.207Z,67.10
2022-09-04T12:36:14.391Z,67.50
2022-09-04T12:39:01.296Z,67.00
2022-09-04T12:41:50.012Z,67.30
2022-09-04T12:44:22.981Z,66.80
2022-09-04T12:46:50.172Z,67.10
2022-09-04T12:49:32.048Z,67.00
2022-09-04T12:52:08.576Z,66.50
2022-09-04T12:54:35.253Z,66.70
2022-09-04T12:57:11.587Z,66.60
2022-09-04T12:59:47.308Z,66.70
2022-09-04T13:02:14.105Z,67.20
2022-09-04T13:04:46.992Z,66.80
2022-09-04T13:07:15.854Z,67.00
2022-09-04T13:10:09.063Z,67.50
2022-09-04T13:12:54.557Z,66.40
2022-09-04T13:15:42.700Z,65.60
2022-09-04T13:18:31.555Z,65.70
2022-09-04T13:21:18.886Z,65.20
2022-09-04T13:23:57.173Z,65.20
2022-09-04T13:26:31.140Z,64.70
2022-09-04T13:29:08.427Z,64.30
2022-09-04T13:31:53.849Z,63.20
2022-09-04T13:34:34.118Z,63.00
2022-09-04T13:37:21.092Z,63.00
2022-09-04T13:40:13.876Z,63.30
2022-09-04T13:42:54.586Z,63.00
2022-09-04T13:45:23.629Z,61.70
2022-09-04T13:47:54.195Z,61.80
2022-09-04T13:50:26.131Z,61.30
2022-09-04T13:53:12.590Z,61.30
2022-09-04T13:55:41.129Z,61.30
2022-09-04T13:58:21.601Z,61.50
2022-09-04T14:01:00.301Z,59.60
2022-09-04T14:03:31.489Z,59.40
2022-09-04T14:05:58.778Z,59.10
2022-09-04T14:08:31.179Z,59.10
2022-09-04T14:11:16.887Z,59.70
2022-09-04T14:13:46.546Z,60.10
2022-09-04T14:16:14.478Z,60.40
2022-09-04T14:18:47.844Z,60.50
2022-09-04T14:21:24.200Z,60.90
2022-09-04T14:24:09.890Z,61.50
2022-09-04T14:26:57.583Z,61.40
2022-09-04T14:29:36.276Z,61.70
2022-09-04T14:32:08.541Z,62.00
2022-09-04T14:34:41.136Z,61.80
2022-09-04T14:37:16.848Z,59.90
2022-09-04T14:39:57.812Z,58.40
2022-09-04T14:42:26.827Z,58.90
2022-09-04T14:44:53.837Z,58.70
2022-09-04T14:47:39.274Z,56.20
2022-09-04T14:50:10.214Z,57.00
2022-09-04T14:52:41.873Z,57.30
2022-09-04T14:55:14.058Z,55.50
2022-09-04T14:57:52.128Z,56.00
2022-09-04T15:00:19.819Z,55.80
2022-09-04T15:02:55.672Z,54.80
2022-09-04T15:05:24.103Z,55.30
2022-09-04T15:07:50.702Z,53.00
2022-09-04T15:10:32.931Z,53.90
2022-09-04T15:13:16.250Z,53.40
2022-09-04T15:15:46.889Z,53.60
2022-09-04T15:18:29.699Z,53.80
2022-09-04T15:20:59.551Z,53.20
2022-09-04T15:23:41.193Z,52.40
2022-09-04T15:26:10.602Z,52.10
2022-09-04T15:28:38.469Z,53.00
2022-09-04T15:31:25.496Z,53.60
2022-09-04T15:33:58.952Z,53.10
2022-09-04T15:36:25.912Z,51.30
2022-09-04T15:38:55.581Z,51.00
2022-09-04T15:41:40.981Z,50.60
2022-09-04T15:44:30.148Z,51.00
2022-09-04T15:47:05.962Z,51.40
2022-09-04T15:49:51.338Z,49.30
2022-09-04T15:52:29.943Z,48.50
2022-09-04T15:55:02.410Z,48.00
2022-09-04T15:57:35.963Z,47.30
2022-09-04T16:00:07.955Z,47.60
2022-09-04T16:02:38.262Z,45.40
2022-09-04T16:05:14.873Z,46.20
2022-09-04T16:08:03.536Z,45.10
2022-09-04T16:10:42.134Z,44.40
2022-09-04T16:13:28.928Z,44.70
2022-09-04T16:16:07.185Z,44.90
2022-09-04T16:18:40.225Z,45.60
2022-09-04T16:21:29.158Z,44.30
2022-09-04T16:23:59.661Z,43.50
2022-09-04T16:26:30.739Z,41.50
2022-09-04T16:29:06.224Z,42.20
2022-09-04T16:31:36.804Z,42.10
2022-09-04T16:34:18.624Z,42.60
2022-09-04T16:36:48.262Z,43.40
2022-09-04T16:39:24.039Z,43.00
2022-09-04T16:41:50.699Z,43.20
2022-09-04T16:44:25.740Z,42.60
2022-09-04T16:47:05.940Z,41.70
2022-09-04T16:49:51.777Z,42.00
2022-09-04T16:52:43.908Z,41.40
2022-09-04T16:55:24.984Z,40.50
2022-09-04T16:57:53.360Z,39.90
2022-09-04T17:00:22.256Z,38.90
2022-09-04T17:02:57.474Z,40.10
2022-09-04T17:05:39.929Z,40.60
2022-09-04T17:08:25.549Z,40.90
2022-09-04T17:11:09.228Z,41.00
2022-09-04T17:13:45.576Z,41.20
2022-09-04T17:16:17.404Z,41.10
2022-09-04T17:18:46.559Z,40.00
2022-09-04T17:24:39.345Z,40.60
2022-09-04T17:29:13.811Z,41.10
2022-09-04T17:29:19.622Z,41.00
2022-09-04T17:30:14.982Z,41.30
2022-09-04T17:40:37.044Z,41.70
2022-09-04T17:40:48.282Z,42.20
2022-09-04T17:40:53.465Z,43.00
2022-09-04T17:42:04.537Z,42.80
2022-09-04T17:44:35.918Z,43.50
2022-09-04T17:47:08.832Z,44.10
2022-09-04T17:49:39.890Z,44.00
2022-09-04T17:52:08.642Z,44.40
2022-09-04T17:54:42.987Z,44.90
2022-09-04T17:57:34.299Z,45.60
2022-09-04T18:00:09.070Z,46.10
2022-09-04T18:02:35.739Z,46.00
2022-09-04T18:05:11.623Z,46.40
2022-09-04T18:08:08.101Z,46.90
2022-09-04T18:10:32.416Z,47.20
2022-09-04T18:13:08.814Z,47.30
2022-09-04T18:16:07.480Z,47.60
2022-09-04T18:18:44.454Z,47.90
2022-09-04T18:21:29.859Z,48.20
2022-09-04T18:23:59.496Z,48.30
2022-09-04T18:26:40.689Z,48.60
2022-09-04T18:30:18.758Z,48.80
2022-09-04T18:37:15.725Z,49.00
2022-09-04T18:37:41.565Z,49.30
2022-09-04T18:38:30.681Z,49.50
2022-09-04T18:42:42.937Z,49.80
2022-09-04T18:50:33.446Z,50.70
2022-09-04T18:50:37.222Z,51.10
2022-09-04T18:50:40.194Z,50.30
2022-09-04T18:52:17.510Z,51.30
2022-09-04T18:54:45.967Z,51.50
2022-09-04T18:57:24.359Z,51.80
2022-09-04T18:59:59.782Z,52.00
2022-09-04T19:02:41.418Z,52.20
2022-09-04T19:05:14.415Z,52.30
2022-09-04T19:07:42.890Z,52.50
2022-09-04T19:10:12.558Z,52.70
2022-09-04T19:12:47.589Z,52.70
2022-09-04T19:15:36.081Z,52.90
2022-09-04T19:18:18.987Z,53.10
2022-09-04T19:20:54.630Z,53.30
2022-09-04T19:23:32.784Z,53.50
2022-09-04T19:26:00.909Z,53.60
2022-09-04T19:28:39.544Z,53.90
2022-09-04T19:31:17.414Z,54.10
2022-09-04T19:33:49.790Z,54.50
2022-09-04T19:36:35.237Z,54.70
2022-09-04T19:46:03.738Z,55.20
2022-09-04T19:46:04.938Z,55.00
2022-09-04T19:46:12.951Z,56.20
2022-09-04T19:47:52.032Z,55.90
2022-09-04T19:53:35.188Z,56.30
2022-09-04T19:53:38.561Z,56.70
2022-09-04T19:56:11.845Z,57.00
2022-09-04T19:58:46.109Z,57.20
2022-09-04T20:01:16.779Z,57.40
2022-09-04T20:04:02.237Z,57.50
2022-09-04T20:06:30.581Z,57.50
2022-09-04T20:09:07.295Z,57.70
2022-09-04T20:11:37.845Z,57.90
2022-09-04T20:14:24.736Z,58.20
2022-09-04T20:16:51.352Z,58.40
2022-09-04T20:19:28.037Z,58.60
2022-09-04T20:21:59.486Z,58.90
2022-09-04T20:24:32.371Z,59.20
2022-09-04T20:27:01.183Z,59.40
2022-09-04T20:29:27.764Z,59.40
2022-09-04T20:32:14.240Z,60.40
2022-09-04T20:34:57.236Z,59.80
2022-09-04T20:37:27.691Z,59.90
2022-09-04T20:40:12.729Z,60.10
2022-09-04T20:43:07.084Z,60.20
2022-09-04T20:50:05.095Z,60.40
2022-09-04T20:52:44.048Z,60.60
2022-09-04T20:52:57.196Z,61.00
2022-09-04T20:54:29.006Z,61.30
2022-09-04T21:02:05.147Z,61.70
2022-09-04T21:03:14.860Z,62.10
2022-09-04T21:03:29.946Z,62.40
2022-09-04T21:06:07.292Z,62.80
2022-09-04T21:08:40.052Z,63.00
2022-09-04T21:11:14.872Z,63.30
2022-09-04T21:13:59.193Z,63.50
2022-09-04T21:16:52.434Z,63.50
2022-09-04T21:19:31.334Z,63.70
2022-09-04T21:22:33.964Z,64.00
2022-09-04T21:25:12.483Z,64.20
2022-09-04T21:28:03.845Z,64.40
2022-09-04T21:30:49.108Z,64.70
2022-09-04T21:33:36.934Z,64.90
2022-09-04T21:36:26.622Z,65.20
2022-09-04T21:39:12.583Z,65.30
2022-09-04T21:41:48.727Z,65.40
2022-09-04T21:44:24.340Z,65.70
2022-09-04T21:46:51.051Z,65.90
2022-09-04T21:49:26.597Z,66.10
2022-09-04T21:52:01.385Z,66.30
2022-09-04T21:54:37.753Z,66.50
2022-09-04T22:02:32.371Z,66.80
2022-09-04T22:02:45.250Z,67.00
2022-09-04T22:03:15.137Z,67.10
2022-09-04T22:05:47.284Z,67.40
2022-09-04T22:13:33.660Z,67.60
2022-09-04T22:13:40.857Z,67.80
2022-09-04T22:14:39.080Z,68.10
2022-09-04T22:17:17.811Z,68.40
2022-09-04T22:19:53.591Z,68.60
2022-09-04T22:22:23.341Z,68.80
2022-09-04T22:25:11.207Z,69.00
2022-09-04T22:28:07.923Z,69.30
2022-09-04T22:30:50.277Z,69.50
2022-09-04T22:33:32.478Z,69.60
2022-09-04T22:36:23.300Z,69.80
2022-09-04T22:38:58.066Z,70.00
2022-09-04T22:41:24.669Z,70.20
2022-09-04T22:44:09.556Z,70.20
2022-09-04T22:46:45.915Z,70.40
2022-09-04T22:49:31.300Z,70.60
2022-09-04T22:52:10.416Z,70.70
2022-09-04T22:54:39.918Z,70.90
2022-09-04T22:57:08.115Z,71.10
2022-09-04T22:59:50.738Z,71.30
2022-09-04T23:02:55.443Z,71.50
2022-09-04T23:05:36.427Z,71.60
2022-09-04T23:13:43.533Z,71.60
2022-09-04T23:13:56.779Z,71.90
2022-09-04T23:14:06.501Z,72.10
2022-09-04T23:16:34.577Z,72.50
2022-09-04T23:23:35.034Z,72.50
2022-09-04T23:26:47.009Z,73.50
2022-09-04T23:26:47.999Z,72.80
2022-09-04T23:27:49.893Z,73.00
2022-09-04T23:30:25.762Z,73.10
2022-09-04T23:33:12.645Z,73.10
2022-09-04T23:35:57.954Z,73.30
2022-09-04T23:38:38.046Z,73.40
2022-09-04T23:41:14.454Z,73.50
2022-09-04T23:43:59.724Z,73.80
2022-09-04T23:46:26.514Z,74.00
2022-09-04T23:49:07.037Z,74.10
2022-09-04T23:51:42.671Z,74.10
2022-09-04T23:54:12.736Z,74.40
2022-09-04T23:56:57.493Z,74.60
2022-09-04T23:59:37.597Z,74.70
